Time,TemperatureF,DewpointF,PressureIn,WindDirection,WindDirectionDegrees,WindSpeedMPH,WindSpeedGustMPH,Humidity,HourlyPrecipIn,Conditions,Clouds,dailyrainin,SoftwareType,DateUTC
2013-01-23 00:02:00,19.0,6.0,31.00,WNW,291,0.0,0.0,57,0.00,,,0.00,,2013-01-23 06:02:00,
2013-01-23 00:12:00,19.0,6.0,31.00,WNW,291,0.0,0.0,57,0.00,,,0.00,,2013-01-23 06:12:00,
2013-01-23 00:22:00,19.0,6.0,31.00,WNW,291,0.0,0.0,57,0.00,,,0.00,,2013-01-23 06:22:00,
2013-01-23 00:32:00,19.0,7.0,31.00,WNW,291,0.0,0.0,58,0.00,,,0.00,,2013-01-23 06:32:00,
2013-01-23 00:42:00,19.0,7.0,31.00,WNW,291,0.0,0.0,58,0.00,,,0.00,,2013-01-23 06:42:00,
2013-01-23 00:53:00,19.0,7.0,31.00,WNW,291,0.0,0.0,58,0.00,,,0.00,,2013-01-23 06:53:00,
2013-01-23 01:02:00,18.0,6.0,31.00,WNW,291,0.0,0.0,58,0.00,,,0.00,,2013-01-23 07:02:00,
2013-01-23 01:12:00,18.0,6.0,31.00,WNW,291,0.0,0.0,58,0.00,,,0.00,,2013-01-23 07:12:00,
2013-01-23 01:22:00,18.0,6.0,31.00,WNW,291,0.0,0.0,59,0.00,,,0.00,,2013-01-23 07:22:00,
2013-01-23 01:33:00,17.0,6.0,31.00,WNW,291,0.0,0.0,60,0.00,,,0.00,,2013-01-23 07:33:00,
2013-01-23 01:42:00,17.0,6.0,31.00,WNW,291,0.0,0.0,60,0.00,,,0.00,,2013-01-23 07:42:00,
2013-01-23 01:53:00,17.0,6.0,31.00,WNW,291,0.0,0.0,60,0.00,,,0.00,,2013-01-23 07:53:00,
2013-01-23 02:02:00,17.0,6.0,31.00,WNW,291,0.0,0.0,61,0.00,,,0.00,,2013-01-23 08:02:00,
2013-01-23 02:12:00,17.0,6.0,31.00,WNW,291,0.0,0.0,61,0.00,,,0.00,,2013-01-23 08:12:00,
2013-01-23 02:22:00,17.0,6.0,31.00,WNW,291,0.0,0.0,61,0.00,,,0.00,,2013-01-23 08:22:00,
2013-01-23 02:33:00,17.0,6.0,31.00,WNW,291,0.0,0.0,62,0.00,,,0.00,,2013-01-23 08:33:00,
2013-01-23 02:42:00,17.0,6.0,31.00,WNW,291,0.0,0.0,62,0.00,,,0.00,,2013-01-23 08:42:00,
2013-01-23 02:53:00,17.0,6.0,31.00,WNW,291,0.0,0.0,62,0.00,,,0.00,,2013-01-23 08:53:00,
2013-01-23 03:02:00,17.0,7.0,31.00,WNW,291,0.0,0.0,63,0.00,,,0.00,,2013-01-23 09:02:00,
2013-01-23 03:12:00,17.0,7.0,31.00,WNW,291,0.0,0.0,63,0.00,,,0.00,,2013-01-23 09:12:00,
2013-01-23 03:22:00,17.0,7.0,31.00,WNW,291,0.0,0.0,63,0.00,,,0.00,,2013-01-23 09:22:00,
2013-01-23 03:32:00,17.0,7.0,31.00,WNW,291,0.0,0.0,63,0.00,,,0.00,,2013-01-23 09:32:00,
2013-01-23 03:43:00,17.0,7.0,31.00,WNW,291,0.0,0.0,63,0.00,,,0.00,,2013-01-23 09:43:00,
2013-01-23 03:53:00,17.0,7.0,31.00,WNW,291,0.0,0.0,64,0.00,,,0.00,,2013-01-23 09:53:00,
2013-01-23 04:02:00,17.0,7.0,31.00,WNW,291,0.0,0.0,65,0.00,,,0.00,,2013-01-23 10:02:00,
2013-01-23 04:12:00,17.0,7.0,31.00,WNW,291,0.0,0.0,65,0.00,,,0.00,,2013-01-23 10:12:00,
2013-01-23 04:22:00,17.0,7.0,31.00,WNW,291,0.0,0.0,65,0.00,,,0.00,,2013-01-23 10:22:00,
2013-01-23 04:32:00,17.0,7.0,31.00,WNW,291,0.0,0.0,65,0.00,,,0.00,,2013-01-23 10:32:00,
2013-01-23 04:42:00,17.0,7.0,31.00,WNW,291,0.0,0.0,65,0.00,,,0.00,,2013-01-23 10:42:00,
2013-01-23 04:53:00,17.0,8.0,31.00,WNW,291,0.0,0.0,66,0.00,,,0.00,,2013-01-23 10:53:00,
2013-01-23 05:02:00,17.0,8.0,31.00,WNW,291,0.0,0.0,66,0.00,,,0.00,,2013-01-23 11:02:00,
2013-01-23 05:12:00,17.0,8.0,31.00,WNW,291,0.0,0.0,66,0.00,,,0.00,,2013-01-23 11:12:00,
2013-01-23 05:22:00,16.0,7.0,31.00,WNW,291,0.0,0.0,66,0.00,,,0.00,,2013-01-23 11:22:00,
2013-01-23 05:33:00,16.0,7.0,31.00,WNW,291,0.0,0.0,66,0.00,,,0.00,,2013-01-23 11:33:00,
2013-01-23 05:43:00,16.0,7.0,31.00,WNW,291,0.0,0.0,66,0.00,,,0.00,,2013-01-23 11:43:00,
2013-01-23 05:53:00,16.0,7.0,31.00,WNW,291,0.0,0.0,67,0.00,,,0.00,,2013-01-23 11:53:00,
2013-01-23 06:03:00,16.0,7.0,31.00,WNW,291,0.0,0.0,67,0.00,,,0.00,,2013-01-23 12:03:00,
2013-01-23 06:12:00,16.0,7.0,31.00,WNW,291,0.0,0.0,67,0.00,,,0.00,,2013-01-23 12:12:00,
2013-01-23 06:22:00,16.0,7.0,31.00,WNW,291,0.0,0.0,68,0.00,,,0.00,,2013-01-23 12:22:00,
2013-01-23 06:33:00,16.0,7.0,31.00,WNW,291,0.0,0.0,68,0.00,,,0.00,,2013-01-23 12:33:00,
2013-01-23 06:43:00,16.0,7.0,31.00,WNW,291,0.0,0.0,68,0.00,,,0.00,,2013-01-23 12:43:00,
2013-01-23 06:53:00,15.0,6.0,31.00,WNW,291,0.0,0.0,68,0.00,,,0.00,,2013-01-23 12:53:00,
2013-01-23 07:03:00,15.0,6.0,31.00,WNW,291,0.0,0.0,68,0.00,,,0.00,,2013-01-23 13:03:00,
2013-01-23 07:12:00,15.0,6.0,31.00,WNW,291,0.0,0.0,68,0.00,,,0.00,,2013-01-23 13:12:00,
2013-01-23 07:23:00,15.0,7.0,31.00,WNW,291,0.0,0.0,69,0.00,,,0.00,,2013-01-23 13:23:00,
2013-01-23 07:33:00,15.0,7.0,31.00,WNW,291,0.0,0.0,70,0.00,,,0.00,,2013-01-23 13:33:00,
2013-01-23 07:43:00,15.0,7.0,31.00,WNW,291,0.0,0.0,70,0.00,,,0.00,,2013-01-23 13:43:00,
2013-01-23 07:53:00,15.0,7.0,31.00,WNW,291,0.0,0.0,70,0.00,,,0.00,,2013-01-23 13:53:00,
2013-01-23 08:02:00,15.0,7.0,31.00,WNW,291,0.0,0.0,70,0.00,,,0.00,,2013-01-23 14:02:00,
2013-01-23 08:12:00,15.0,7.0,31.00,WNW,291,0.0,0.0,70,0.00,,,0.00,,2013-01-23 14:12:00,
2013-01-23 08:23:00,16.0,8.0,31.00,WNW,291,0.0,0.0,71,0.00,,,0.00,,2013-01-23 14:23:00,
2013-01-23 08:33:00,16.0,8.0,31.00,WNW,291,0.0,0.0,71,0.00,,,0.00,,2013-01-23 14:33:00,
2013-01-23 08:42:00,16.0,8.0,31.00,WNW,291,0.0,0.0,71,0.00,,,0.00,,2013-01-23 14:42:00,
2013-01-23 08:53:00,18.0,11.0,31.00,SSE,154,3.0,3.0,72,0.00,,,0.00,,2013-01-23 14:53:00,
2013-01-23 09:03:00,19.0,11.0,31.00,SSE,162,2.0,2.0,72,0.00,,,0.00,,2013-01-23 15:03:00,
2013-01-23 09:12:00,19.0,11.0,31.00,SSE,162,2.0,2.0,72,0.00,,,0.00,,2013-01-23 15:12:00,
2013-01-23 09:23:00,21.0,14.0,31.00,SSE,162,0.0,0.0,73,0.00,,,0.00,,2013-01-23 15:23:00,
2013-01-23 09:33:00,23.0,16.0,31.00,SSE,162,0.0,0.0,74,0.00,,,0.00,,2013-01-23 15:33:00,
2013-01-23 09:43:00,23.0,16.0,31.00,SSE,162,0.0,0.0,74,0.00,,,0.00,,2013-01-23 15:43:00,
2013-01-23 09:53:00,27.0,20.0,31.00,SSE,158,3.0,4.0,74,0.00,,,0.00,,2013-01-23 15:53:00,
2013-01-23 10:03:00,28.0,21.0,31.00,SSE,162,0.0,0.0,74,0.00,,,0.00,,2013-01-23 16:03:00,
2013-01-23 10:12:00,28.0,21.0,31.00,SSE,162,0.0,0.0,74,0.00,,,0.00,,2013-01-23 16:12:00,
2013-01-23 10:23:00,31.0,23.0,31.00,SSE,155,0.0,2.0,73,0.00,,,0.00,,2013-01-23 16:23:00,
2013-01-23 10:32:00,31.0,23.0,31.00,SSE,155,0.0,2.0,73,0.00,,,0.00,,2013-01-23 16:32:00,
2013-01-23 10:42:00,31.0,23.0,31.00,SSE,155,0.0,2.0,73,0.00,,,0.00,,2013-01-23 16:42:00,
2013-01-23 10:53:00,35.0,24.0,31.00,SW,232,2.0,3.0,65,0.00,,,0.00,,2013-01-23 16:53:00,
2013-01-23 11:03:00,36.0,23.0,31.00,SW,229,0.0,3.0,59,0.00,,,0.00,,2013-01-23 17:03:00,
2013-01-23 11:12:00,36.0,23.0,31.00,SW,229,0.0,3.0,59,0.00,,,0.00,,2013-01-23 17:12:00,
2013-01-23 11:22:00,39.0,24.0,31.00,SW,236,0.0,0.0,55,0.00,,,0.00,,2013-01-23 17:22:00,
2013-01-23 11:33:00,39.0,22.0,31.00,SW,236,0.0,0.0,51,0.00,,,0.00,,2013-01-23 17:33:00,
2013-01-23 11:42:00,39.0,22.0,31.00,SW,236,0.0,0.0,51,0.00,,,0.00,,2013-01-23 17:42:00,
2013-01-23 11:53:00,40.0,22.0,31.00,NNW,337,2.0,3.0,49,0.00,,,0.00,,2013-01-23 17:53:00,
2013-01-23 12:03:00,41.0,23.0,31.00,West,273,3.0,4.0,49,0.00,,,0.00,,2013-01-23 18:03:00,
2013-01-23 12:12:00,41.0,23.0,31.00,West,273,3.0,4.0,49,0.00,,,0.00,,2013-01-23 18:12:00,
2013-01-23 12:23:00,42.0,23.0,31.00,WNW,299,3.0,3.0,47,0.00,,,0.00,,2013-01-23 18:23:00,
2013-01-23 12:33:00,42.0,23.0,31.00,WNW,299,3.0,3.0,47,0.00,,,0.00,,2013-01-23 18:33:00,
2013-01-23 12:43:00,42.0,22.0,31.00,NW,317,4.0,4.0,44,0.00,,,0.00,,2013-01-23 18:43:00,
2013-01-23 12:53:00,44.0,22.0,31.00,NW,315,3.0,5.0,41,0.00,,,0.00,,2013-01-23 18:53:00,
2013-01-23 13:03:00,44.0,21.0,31.00,NNE,19,3.0,5.0,40,0.00,,,0.00,,2013-01-23 19:03:00,
2013-01-23 13:13:00,44.0,21.0,31.00,NNE,19,3.0,5.0,40,0.00,,,0.00,,2013-01-23 19:13:00,
2013-01-23 13:23:00,44.0,21.0,31.00,NW,309,3.0,3.0,40,0.00,,,0.00,,2013-01-23 19:23:00,
2013-01-23 13:33:00,44.0,21.0,31.00,NW,309,3.0,3.0,40,0.00,,,0.00,,2013-01-23 19:33:00,
2013-01-23 13:43:00,44.0,21.0,31.00,NW,309,3.0,3.0,40,0.00,,,0.00,,2013-01-23 19:43:00,
2013-01-23 13:53:00,44.0,21.0,31.00,NNW,343,3.0,3.0,40,0.00,,,0.00,,2013-01-23 19:53:00,
2013-01-23 14:03:00,46.0,22.0,31.00,NNE,13,3.0,3.0,38,0.00,,,0.00,,2013-01-23 20:03:00,
2013-01-23 14:13:00,46.0,22.0,31.00,NNE,13,3.0,3.0,38,0.00,,,0.00,,2013-01-23 20:13:00,
2013-01-23 14:23:00,46.0,22.0,31.00,NW,313,2.0,3.0,38,0.00,,,0.00,,2013-01-23 20:23:00,
2013-01-23 14:33:00,47.0,22.0,31.00,North,353,4.0,4.0,37,0.00,,,0.00,,2013-01-23 20:33:00,
2013-01-23 14:42:00,47.0,22.0,31.00,North,353,4.0,4.0,37,0.00,,,0.00,,2013-01-23 20:42:00,
2013-01-23 14:53:00,48.0,23.0,31.00,North,357,3.0,5.0,37,0.00,,,0.00,,2013-01-23 20:53:00,
2013-01-23 15:03:00,48.0,23.0,31.00,North,353,2.0,2.0,37,0.00,,,0.00,,2013-01-23 21:03:00,
2013-01-23 15:12:00,48.0,23.0,31.00,North,353,2.0,2.0,37,0.00,,,0.00,,2013-01-23 21:12:00,
2013-01-23 15:22:00,49.0,23.0,31.00,North,357,5.0,5.0,36,0.00,,,0.00,,2013-01-23 21:22:00,
2013-01-23 15:33:00,50.0,24.0,31.00,North,11,3.0,4.0,36,0.00,,,0.00,,2013-01-23 21:33:00,
2013-01-23 15:42:00,50.0,24.0,31.00,North,11,3.0,4.0,36,0.00,,,0.00,,2013-01-23 21:42:00,
2013-01-23 15:53:00,50.0,23.0,31.00,NNE,19,5.0,7.0,34,0.00,,,0.00,,2013-01-23 21:53:00,
2013-01-23 16:02:00,49.0,22.0,31.00,North,8,3.0,4.0,34,0.00,,,0.00,,2013-01-23 22:02:00,
2013-01-23 16:12:00,49.0,22.0,31.00,North,8,3.0,4.0,34,0.00,,,0.00,,2013-01-23 22:12:00,
2013-01-23 16:23:00,48.0,21.0,31.00,NNW,345,7.0,7.0,34,0.00,,,0.00,,2013-01-23 22:23:00,
2013-01-23 16:33:00,48.0,21.0,31.00,NE,36,3.0,5.0,34,0.00,,,0.00,,2013-01-23 22:33:00,
2013-01-23 16:42:00,48.0,21.0,31.00,NE,36,3.0,5.0,34,0.00,,,0.00,,2013-01-23 22:42:00,
2013-01-23 16:53:00,47.0,20.0,31.00,North,353,3.0,5.0,34,0.00,,,0.00,,2013-01-23 22:53:00,
2013-01-23 17:03:00,46.0,19.0,31.00,North,2,7.0,8.0,34,0.00,,,0.00,,2013-01-23 23:03:00,
2013-01-23 17:12:00,46.0,19.0,31.00,North,2,7.0,8.0,34,0.00,,,0.00,,2013-01-23 23:12:00,
2013-01-23 17:23:00,44.0,18.0,31.00,NE,39,3.0,5.0,35,0.00,,,0.00,,2013-01-23 23:23:00,
2013-01-23 17:33:00,44.0,18.0,31.00,North,10,5.0,8.0,35,0.00,,,0.00,,2013-01-23 23:33:00,
2013-01-23 17:42:00,44.0,18.0,31.00,North,10,5.0,8.0,35,0.00,,,0.00,,2013-01-23 23:42:00,
2013-01-23 17:53:00,42.0,17.0,31.00,North,357,3.0,3.0,36,0.00,,,0.00,,2013-01-23 23:53:00,
2013-01-23 18:03:00,42.0,18.0,31.00,North,353,2.0,3.0,37,0.00,,,0.00,,2013-01-24 00:03:00,
2013-01-23 18:12:00,42.0,18.0,31.00,North,353,2.0,3.0,37,0.00,,,0.00,,2013-01-24 00:12:00,
2013-01-23 18:22:00,41.0,18.0,31.00,North,357,3.0,5.0,39,0.00,,,0.00,,2013-01-24 00:22:00,
2013-01-23 18:32:00,40.0,17.0,31.00,North,0,8.0,8.0,39,0.00,,,0.00,,2013-01-24 00:32:00,
2013-01-23 18:42:00,40.0,17.0,31.00,North,0,8.0,8.0,39,0.00,,,0.00,,2013-01-24 00:42:00,
2013-01-23 18:53:00,38.0,16.0,31.00,North,6,3.0,6.0,40,0.00,,,0.00,,2013-01-24 00:53:00,
2013-01-23 19:03:00,37.0,16.0,31.00,North,0,3.0,6.0,42,0.00,,,0.00,,2013-01-24 01:03:00,
2013-01-23 19:12:00,37.0,16.0,31.00,North,0,3.0,6.0,42,0.00,,,0.00,,2013-01-24 01:12:00,
2013-01-23 19:23:00,36.0,16.0,31.00,North,10,3.0,5.0,43,0.00,,,0.00,,2013-01-24 01:23:00,
2013-01-23 19:33:00,35.0,15.0,31.00,North,350,4.0,5.0,44,0.00,,,0.00,,2013-01-24 01:33:00,
2013-01-23 19:42:00,35.0,15.0,31.00,North,350,4.0,5.0,44,0.00,,,0.00,,2013-01-24 01:42:00,
2013-01-23 19:52:00,34.0,15.0,31.00,North,357,7.0,7.0,45,0.00,,,0.00,,2013-01-24 01:52:00,
2013-01-23 20:02:00,34.0,15.0,31.00,North,9,7.0,9.0,45,0.00,,,0.00,,2013-01-24 02:02:00,
2013-01-23 20:12:00,34.0,15.0,31.00,North,9,7.0,9.0,45,0.00,,,0.00,,2013-01-24 02:12:00,
2013-01-23 20:22:00,33.0,14.0,31.00,North,349,3.0,8.0,45,0.00,,,0.00,,2013-01-24 02:22:00,
2013-01-23 20:33:00,33.0,14.0,31.00,North,353,5.0,7.0,45,0.00,,,0.00,,2013-01-24 02:33:00,
2013-01-23 20:42:00,33.0,14.0,31.00,North,353,5.0,7.0,45,0.00,,,0.00,,2013-01-24 02:42:00,
2013-01-23 20:52:00,33.0,14.0,31.00,North,353,5.0,7.0,45,0.00,,,0.00,,2013-01-24 02:52:00,
2013-01-23 21:02:00,31.0,14.0,31.00,NNW,334,7.0,7.0,48,0.00,,,0.00,,2013-01-24 03:02:00,
2013-01-23 21:12:00,31.0,14.0,31.00,NNW,334,7.0,7.0,48,0.00,,,0.00,,2013-01-24 03:12:00,
2013-01-23 21:22:00,30.0,13.0,31.00,NNE,24,3.0,5.0,48,0.00,,,0.00,,2013-01-24 03:22:00,
2013-01-23 21:32:00,30.0,13.0,31.00,NNW,343,3.0,5.0,48,0.00,,,0.00,,2013-01-24 03:32:00,
2013-01-23 21:43:00,30.0,13.0,31.00,NNW,343,3.0,5.0,48,0.00,,,0.00,,2013-01-24 03:43:00,
2013-01-23 21:53:00,29.0,13.0,31.00,NNE,17,5.0,11.0,50,0.00,,,0.00,,2013-01-24 03:53:00,
2013-01-23 22:02:00,29.0,13.0,31.00,NNE,24,5.0,7.0,51,0.00,,,0.00,,2013-01-24 04:02:00,
2013-01-23 22:12:00,29.0,13.0,31.00,NNE,24,5.0,7.0,51,0.00,,,0.00,,2013-01-24 04:12:00,
2013-01-23 22:22:00,28.0,13.0,31.00,NNE,16,5.0,7.0,52,0.00,,,0.00,,2013-01-24 04:22:00,
2013-01-23 22:32:00,28.0,13.0,31.00,NNW,339,3.0,5.0,52,0.00,,,0.00,,2013-01-24 04:32:00,
2013-01-23 22:42:00,28.0,13.0,31.00,NNW,339,3.0,5.0,52,0.00,,,0.00,,2013-01-24 04:42:00,
2013-01-23 22:53:00,28.0,13.0,31.00,North,3,9.0,9.0,53,0.00,,,0.00,,2013-01-24 04:53:00,
2013-01-23 23:03:00,27.0,12.0,31.00,North,0,5.0,7.0,53,0.00,,,0.00,,2013-01-24 05:03:00,
2013-01-23 23:12:00,27.0,12.0,31.00,North,0,5.0,7.0,53,0.00,,,0.00,,2013-01-24 05:12:00,
2013-01-23 23:22:00,27.0,13.0,31.00,North,0,6.0,6.0,54,0.00,,,0.00,,2013-01-24 05:22:00,
2013-01-23 23:32:00,27.0,13.0,31.00,North,2,5.0,5.0,54,0.00,,,0.00,,2013-01-24 05:32:00,
2013-01-23 23:42:00,27.0,13.0,31.00,North,2,5.0,5.0,54,0.00,,,0.00,,2013-01-24 05:42:00,
2013-01-23 23:53:00,26.0,12.0,31.00,NNW,348,2.0,5.0,55,0.00,,,0.00,,2013-01-24 05:53:00,